createdAt,value
2018-10-18T00:00:10.252Z,9.22
2018-10-18T00:01:10.134Z,9.15
2018-10-18T00:02:10.082Z,9.08
2018-10-18T00:03:10.031Z,9.03
2018-10-18T00:04:09.832Z,8.93
2018-10-18T00:05:09.734Z,8.83
2018-10-18T00:06:09.663Z,8.78
2018-10-18T00:07:09.543Z,8.88
2018-10-18T00:08:09.552Z,8.75
2018-10-18T00:09:09.350Z,8.73
2018-10-18T00:10:09.356Z,8.73
2018-10-18T00:11:09.176Z,8.70
2018-10-18T00:12:09.088Z,8.65
2018-10-18T00:13:08.963Z,8.64
2018-10-18T00:14:08.931Z,8.79
2018-10-18T00:15:08.773Z,8.88
2018-10-18T00:16:08.695Z,8.86
2018-10-18T00:17:08.580Z,8.96
2018-10-18T00:18:08.561Z,8.94
2018-10-18T00:19:08.389Z,8.98
2018-10-18T00:20:08.341Z,9.06
2018-10-18T00:21:08.214Z,9.12
2018-10-18T00:22:08.098Z,9.12
2018-10-18T00:23:08.002Z,9.24
2018-10-18T00:24:07.990Z,9.24
2018-10-18T00:25:07.817Z,9.22
2018-10-18T00:26:07.788Z,9.22
2018-10-18T00:27:07.621Z,9.22
2018-10-18T00:28:07.519Z,9.17
2018-10-18T00:29:07.424Z,9.27
2018-10-18T00:30:07.408Z,9.32
2018-10-18T00:31:07.249Z,9.32
2018-10-18T00:32:07.224Z,9.22
2018-10-18T00:33:07.040Z,9.13
2018-10-18T00:34:06.946Z,9.19
2018-10-18T00:35:06.866Z,9.01
2018-10-18T00:36:06.814Z,9.15
2018-10-18T00:37:06.655Z,9.17
2018-10-18T00:38:06.626Z,9.13
2018-10-18T00:39:06.465Z,8.89
2018-10-18T00:40:06.368Z,8.89
2018-10-18T00:41:06.272Z,8.82
2018-10-18T00:42:06.248Z,8.71
2018-10-18T00:43:06.081Z,8.65
2018-10-18T00:44:06.020Z,8.71
2018-10-18T00:45:05.886Z,8.70
2018-10-18T00:46:05.789Z,8.65
2018-10-18T00:47:05.706Z,8.83
2018-10-18T00:48:05.651Z,9.04
2018-10-18T00:49:05.503Z,9.20
2018-10-18T00:50:05.427Z,9.10
2018-10-18T00:51:05.311Z,9.08
2018-10-18T00:52:05.227Z,8.97
2018-10-18T00:53:05.113Z,8.98
2018-10-18T00:54:05.048Z,8.89
2018-10-18T00:55:04.919Z,8.83
2018-10-18T00:56:04.862Z,8.80
2018-10-18T00:57:04.744Z,8.76
2018-10-18T00:58:04.633Z,8.65
2018-10-18T00:59:04.531Z,8.71
2018-10-18T01:00:04.463Z,8.82
2018-10-18T01:01:04.341Z,8.86
2018-10-18T01:02:04.310Z,9.01
2018-10-18T01:03:04.146Z,9.01
2018-10-18T01:04:04.052Z,9.12
2018-10-18T01:05:03.953Z,9.23
2018-10-18T01:06:03.913Z,9.24
2018-10-18T01:07:03.782Z,9.22
2018-10-18T01:08:03.680Z,9.27
2018-10-18T01:09:03.572Z,9.42
2018-10-18T01:10:03.480Z,9.45
2018-10-18T01:11:03.386Z,9.40
2018-10-18T01:12:03.366Z,9.49
2018-10-18T01:13:03.184Z,9.38
2018-10-18T01:14:03.132Z,9.27
2018-10-18T01:15:02.993Z,9.32
2018-10-18T01:16:02.892Z,9.41
2018-10-18T01:17:02.823Z,9.49
2018-10-18T01:18:02.757Z,9.49
2018-10-18T01:19:02.606Z,9.56
2018-10-18T01:20:02.526Z,9.42
2018-10-18T01:21:02.416Z,9.44
2018-10-18T01:22:02.328Z,9.32
2018-10-18T01:23:02.218Z,9.19
2018-10-18T01:24:02.154Z,8.94
2018-10-18T01:25:02.026Z,8.86
2018-10-18T01:26:02.087Z,8.86
2018-10-18T01:27:01.848Z,8.67
2018-10-18T01:28:01.736Z,8.63
2018-10-18T01:29:01.642Z,8.65
2018-10-18T01:30:01.642Z,8.54
2018-10-18T01:31:01.450Z,8.50
2018-10-18T01:32:01.412Z,8.50
2018-10-18T01:33:01.254Z,8.45
2018-10-18T01:34:01.157Z,8.42
2018-10-18T01:35:01.061Z,8.25
2018-10-18T01:36:01.004Z,8.29
2018-10-18T01:37:00.883Z,8.27
2018-10-18T01:38:00.822Z,8.22
2018-10-18T01:39:00.674Z,8.28
2018-10-18T01:40:00.685Z,8.24
2018-10-18T01:41:00.482Z,8.29
2018-10-18T01:42:00.428Z,8.37
2018-10-18T01:43:00.291Z,8.47
2018-10-18T01:44:00.259Z,8.50
2018-10-18T01:45:00.102Z,8.50
2018-10-18T01:46:00.002Z,8.57
2018-10-18T01:47:00.020Z,8.58
2018-10-18T01:47:59.844Z,8.67
2018-10-18T01:48:59.709Z,8.75
2018-10-18T01:49:59.623Z,8.70
2018-10-18T01:50:59.518Z,8.73
2018-10-18T01:51:59.437Z,8.65
2018-10-18T01:52:59.323Z,8.65
2018-10-18T01:53:59.360Z,8.58
2018-10-18T01:54:59.146Z,8.63
2018-10-18T01:55:59.060Z,8.65
2018-10-18T01:56:58.955Z,8.60
2018-10-18T01:57:58.839Z,8.64
2018-10-18T01:58:58.741Z,8.65
2018-10-18T01:59:58.696Z,8.57
2018-10-18T02:00:58.653Z,8.78
2018-10-18T02:01:58.502Z,8.71
2018-10-18T02:02:58.369Z,8.91
2018-10-18T02:03:58.258Z,8.96
2018-10-18T02:04:58.165Z,9.00
2018-10-18T02:05:58.075Z,8.98
2018-10-18T02:06:57.986Z,8.96
2018-10-18T02:07:57.978Z,8.98
2018-10-18T02:08:57.776Z,9.10
2018-10-18T02:09:57.680Z,9.19
2018-10-18T02:10:57.582Z,9.19
2018-10-18T02:11:57.535Z,9.17
2018-10-18T02:12:57.403Z,9.00
2018-10-18T02:13:57.291Z,9.08
2018-10-18T02:14:57.303Z,9.03
2018-10-18T02:15:57.162Z,9.00
2018-10-18T02:16:57.007Z,9.04
2018-10-18T02:17:56.953Z,9.03
2018-10-18T02:18:56.838Z,9.06
2018-10-18T02:19:56.716Z,9.04
2018-10-18T02:20:56.616Z,9.01
2018-10-18T02:21:56.642Z,8.98
2018-10-18T02:22:56.422Z,8.91
2018-10-18T02:23:56.382Z,8.88
2018-10-18T02:24:56.278Z,8.82
2018-10-18T02:25:56.137Z,8.94
2018-10-18T02:26:56.040Z,8.88
2018-10-18T02:27:55.962Z,8.82
2018-10-18T02:28:55.950Z,8.86
2018-10-18T02:29:55.752Z,8.85
2018-10-18T02:30:55.652Z,8.85
2018-10-18T02:31:55.556Z,8.93
2018-10-18T02:32:55.478Z,8.96
2018-10-18T02:33:55.368Z,8.98
2018-10-18T02:34:55.264Z,9.01
2018-10-18T02:35:55.322Z,8.98
2018-10-18T02:36:55.076Z,8.96
2018-10-18T02:37:54.993Z,8.94
2018-10-18T02:38:54.878Z,9.06
2018-10-18T02:39:54.788Z,9.04
2018-10-18T02:40:54.686Z,9.17
2018-10-18T02:41:54.610Z,9.30
2018-10-18T02:42:54.612Z,9.35
2018-10-18T02:43:54.397Z,9.48
2018-10-18T02:44:54.298Z,9.60
2018-10-18T02:45:54.201Z,9.62
2018-10-18T02:46:54.111Z,9.81
2018-10-18T02:47:54.087Z,9.88
2018-10-18T02:48:53.919Z,9.78
2018-10-18T02:49:53.819Z,9.77
2018-10-18T02:50:53.722Z,9.75
2018-10-18T02:51:53.625Z,9.71
2018-10-18T02:52:53.545Z,9.70
2018-10-18T02:53:53.484Z,9.62
2018-10-18T02:54:53.336Z,9.58
2018-10-18T02:55:53.242Z,9.62
2018-10-18T02:56:53.247Z,9.70
2018-10-18T02:57:53.063Z,9.62
2018-10-18T02:58:52.949Z,9.58
2018-10-18T02:59:52.904Z,9.49
2018-10-18T03:00:52.757Z,9.42
2018-10-18T03:01:52.661Z,9.45
2018-10-18T03:02:52.581Z,9.40
2018-10-18T03:03:52.575Z,9.42
2018-10-18T03:04:52.374Z,9.45
2018-10-18T03:05:52.341Z,9.55
2018-10-18T03:06:52.182Z,9.56
2018-10-18T03:07:52.099Z,9.67
2018-10-18T03:08:51.989Z,9.74
2018-10-18T03:09:51.895Z,9.81
2018-10-18T03:10:51.794Z,9.95
2018-10-18T03:11:51.699Z,10.06
2018-10-18T03:12:51.617Z,10.11
2018-10-18T03:13:51.509Z,10.16
2018-10-18T03:14:51.408Z,10.26
2018-10-18T03:15:51.340Z,10.35
2018-10-18T03:16:51.214Z,10.28
2018-10-18T03:17:51.137Z,10.32
2018-10-18T03:18:51.027Z,10.25
2018-10-18T03:19:50.929Z,10.22
2018-10-18T03:20:50.830Z,10.11
2018-10-18T03:21:50.735Z,10.04
2018-10-18T03:22:50.659Z,9.98
2018-10-18T03:23:50.544Z,9.80
2018-10-18T03:24:50.449Z,9.62
2018-10-18T03:25:50.353Z,9.65
2018-10-18T03:26:50.252Z,9.58
2018-10-18T03:27:50.175Z,9.52
2018-10-18T03:28:50.061Z,9.45
2018-10-18T03:29:49.967Z,9.37
2018-10-18T03:30:49.867Z,9.32
2018-10-18T03:31:49.773Z,9.19
2018-10-18T03:32:49.691Z,9.17
2018-10-18T03:33:49.583Z,9.23
2018-10-18T03:34:49.487Z,9.12
2018-10-18T03:35:49.390Z,9.26
2018-10-18T03:36:49.292Z,9.23
2018-10-18T03:37:49.212Z,9.31
2018-10-18T03:38:49.099Z,9.30
2018-10-18T03:39:49.004Z,9.30
2018-10-18T03:40:48.904Z,9.31
2018-10-18T03:41:48.811Z,9.17
2018-10-18T03:42:48.731Z,9.22
2018-10-18T03:43:48.622Z,9.20
2018-10-18T03:44:48.524Z,9.19
2018-10-18T03:45:48.424Z,8.97
2018-10-18T03:46:48.327Z,9.01
2018-10-18T03:47:48.247Z,9.00
2018-10-18T03:48:48.135Z,9.04
2018-10-18T03:49:48.071Z,9.08
2018-10-18T03:50:47.943Z,8.97
2018-10-18T03:51:47.847Z,9.04
2018-10-18T03:52:47.768Z,8.96
2018-10-18T03:53:47.654Z,8.97
2018-10-18T03:54:47.558Z,8.91
2018-10-18T03:55:47.463Z,8.85
2018-10-18T03:56:47.377Z,8.85
2018-10-18T03:57:47.283Z,8.85
2018-10-18T03:58:47.174Z,8.86
2018-10-18T03:59:47.149Z,8.82
2018-10-18T04:00:46.984Z,8.83
2018-10-18T04:01:46.886Z,8.83
2018-10-18T04:02:46.804Z,8.83
2018-10-18T04:03:46.689Z,8.82
2018-10-18T04:04:46.600Z,8.85
2018-10-18T04:05:46.499Z,8.93
2018-10-18T04:06:46.402Z,9.10
2018-10-18T04:07:46.322Z,9.16
2018-10-18T04:08:46.210Z,9.24
2018-10-18T04:09:46.114Z,9.17
2018-10-18T04:10:46.028Z,9.19
2018-10-18T04:11:45.918Z,9.16
2018-10-18T04:12:45.835Z,9.08
2018-10-18T04:13:45.747Z,8.96
2018-10-18T04:14:45.635Z,9.00
2018-10-18T04:15:45.534Z,9.00
2018-10-18T04:16:45.439Z,9.01
2018-10-18T04:17:45.361Z,8.97
2018-10-18T04:18:45.266Z,8.96
2018-10-18T04:19:45.148Z,8.82
2018-10-18T04:20:45.052Z,8.79
2018-10-18T04:21:44.953Z,8.75
2018-10-18T04:22:44.861Z,8.65
2018-10-18T04:23:44.776Z,8.68
2018-10-18T04:24:44.666Z,8.76
2018-10-18T04:25:44.602Z,8.86
2018-10-18T04:26:44.574Z,8.71
2018-10-18T04:27:44.380Z,8.79
2018-10-18T04:28:44.299Z,8.76
2018-10-18T04:29:44.183Z,8.75
2018-10-18T04:30:44.085Z,8.61
2018-10-18T04:31:43.991Z,8.70
2018-10-18T04:32:43.900Z,8.63
2018-10-18T04:33:43.922Z,8.57
2018-10-18T04:34:43.700Z,8.58
2018-10-18T04:35:43.603Z,8.40
2018-10-18T04:36:43.507Z,8.39
2018-10-18T04:37:43.411Z,8.31
2018-10-18T04:38:43.342Z,8.21
2018-10-18T04:39:43.222Z,8.22
2018-10-18T04:40:43.139Z,8.12
2018-10-18T04:41:43.024Z,8.09
2018-10-18T04:42:42.930Z,8.00
2018-10-18T04:43:42.846Z,7.95
2018-10-18T04:44:42.741Z,8.02
2018-10-18T04:45:42.641Z,8.00
2018-10-18T04:46:42.539Z,8.03
2018-10-18T04:47:42.552Z,8.00
2018-10-18T04:48:42.401Z,7.95
2018-10-18T04:49:42.252Z,8.02
2018-10-18T04:50:42.152Z,8.13
2018-10-18T04:51:42.060Z,8.22
2018-10-18T04:52:41.958Z,8.32
2018-10-18T04:53:41.881Z,8.46
2018-10-18T04:54:41.769Z,8.64
2018-10-18T04:55:41.673Z,8.65
2018-10-18T04:56:41.619Z,8.79
2018-10-18T04:57:41.478Z,8.89
2018-10-18T04:58:41.397Z,8.93
2018-10-18T04:59:41.285Z,8.91
2018-10-18T05:00:41.189Z,8.88
2018-10-18T05:01:41.091Z,8.85
2018-10-18T05:02:41.024Z,8.78
2018-10-18T05:03:40.913Z,8.68
2018-10-18T05:04:40.802Z,8.67
2018-10-18T05:05:40.704Z,8.71
2018-10-18T05:06:40.605Z,8.57
2018-10-18T05:07:40.511Z,8.64
2018-10-18T05:08:40.431Z,8.63
2018-10-18T05:09:40.317Z,8.61
2018-10-18T05:10:40.221Z,8.58
2018-10-18T05:11:40.127Z,8.54
2018-10-18T05:12:40.080Z,8.52
2018-10-18T05:13:39.951Z,8.47
2018-10-18T05:14:39.835Z,8.42
2018-10-18T05:15:39.740Z,8.31
2018-10-18T05:16:39.639Z,8.28
2018-10-18T05:17:39.542Z,8.31
2018-10-18T05:18:39.462Z,8.40
2018-10-18T05:19:39.353Z,8.43
2018-10-18T05:20:39.271Z,8.46
2018-10-18T05:21:39.156Z,8.49
2018-10-18T05:22:39.067Z,8.50
2018-10-18T05:23:39.407Z,8.42
2018-10-18T05:24:38.870Z,8.42
2018-10-18T05:25:38.859Z,8.40
2018-10-18T05:26:38.672Z,8.37
2018-10-18T05:27:38.578Z,8.40
2018-10-18T05:28:38.496Z,8.43
2018-10-18T05:29:38.382Z,8.40
2018-10-18T05:30:38.400Z,8.37
2018-10-18T05:31:38.263Z,8.32
2018-10-18T05:32:38.097Z,8.27
2018-10-18T05:33:38.013Z,8.29
2018-10-18T05:34:37.902Z,8.14
2018-10-18T05:35:37.805Z,8.10
2018-10-18T05:36:37.709Z,7.96
2018-10-18T05:37:37.801Z,7.96
2018-10-18T05:38:37.529Z,7.99
2018-10-18T05:39:37.442Z,7.95
2018-10-18T05:40:37.321Z,7.95
2018-10-18T05:41:37.222Z,8.00
2018-10-18T05:42:37.125Z,8.00
2018-10-18T05:43:37.047Z,8.04
2018-10-18T05:44:37.035Z,8.02
2018-10-18T05:45:36.833Z,8.02
2018-10-18T05:46:36.744Z,8.04
2018-10-18T05:47:36.644Z,7.96
2018-10-18T05:48:36.564Z,8.00
2018-10-18T05:49:36.448Z,8.02
2018-10-18T05:50:36.349Z,8.02
2018-10-18T05:51:36.254Z,7.99
2018-10-18T05:52:36.161Z,7.94
2018-10-18T05:53:36.168Z,8.02
2018-10-18T05:54:35.965Z,8.07
2018-10-18T05:55:35.867Z,8.10
2018-10-18T05:56:35.770Z,8.18
2018-10-18T05:57:35.675Z,8.20
2018-10-18T05:58:35.696Z,8.21
2018-10-18T05:59:35.502Z,8.17
2018-10-18T06:00:35.385Z,8.17
2018-10-18T06:01:35.287Z,8.20
2018-10-18T06:02:35.192Z,8.29
2018-10-18T06:03:35.099Z,8.34
2018-10-18T06:04:35.114Z,8.42
2018-10-18T06:05:34.902Z,8.36
2018-10-18T06:06:34.805Z,8.46
2018-10-18T06:07:34.705Z,8.43
2018-10-18T06:08:34.617Z,8.52
2018-10-18T06:09:34.564Z,8.60
2018-10-18T06:10:34.481Z,8.63
2018-10-18T06:11:34.322Z,8.64
2018-10-18T06:12:34.223Z,8.79
2018-10-18T06:13:34.128Z,8.93
2018-10-18T06:14:34.047Z,8.93
2018-10-18T06:15:33.936Z,9.01
2018-10-18T06:16:33.838Z,9.16
2018-10-18T06:17:33.743Z,9.17
2018-10-18T06:18:33.646Z,9.42
2018-10-18T06:19:33.564Z,9.42
2018-10-18T06:20:33.450Z,9.42
2018-10-18T06:21:33.356Z,9.62
2018-10-18T06:22:33.308Z,9.62
2018-10-18T06:23:33.164Z,9.59
2018-10-18T06:24:33.084Z,9.59
2018-10-18T06:25:32.968Z,9.45
2018-10-18T06:26:32.877Z,9.49
2018-10-18T06:27:32.779Z,9.50
2018-10-18T06:28:32.683Z,9.58
2018-10-18T06:29:32.605Z,9.77
2018-10-18T06:30:32.489Z,9.93
2018-10-18T06:31:32.395Z,10.20
2018-10-18T06:32:32.297Z,10.35
2018-10-18T06:33:32.205Z,10.62
2018-10-18T06:34:32.129Z,10.75
2018-10-18T06:35:32.013Z,10.94
2018-10-18T06:36:31.917Z,11.16
2018-10-18T06:37:31.828Z,11.33
2018-10-18T06:38:31.728Z,11.33
2018-10-18T06:39:31.648Z,11.45
2018-10-18T06:40:31.537Z,11.54
2018-10-18T06:41:31.441Z,11.66
2018-10-18T06:42:31.351Z,11.82
2018-10-18T06:43:31.254Z,12.07
2018-10-18T06:44:31.173Z,12.08
2018-10-18T06:45:31.063Z,12.15
2018-10-18T06:46:30.966Z,12.25
2018-10-18T06:47:30.924Z,12.49
2018-10-18T06:48:30.784Z,12.66
2018-10-18T06:49:30.759Z,12.87
2018-10-18T06:50:30.593Z,12.96
2018-10-18T06:51:30.502Z,13.22
2018-10-18T06:52:30.408Z,13.35
2018-10-18T06:53:30.318Z,13.61
2018-10-18T06:54:30.243Z,13.88
2018-10-18T06:55:30.131Z,13.96
2018-10-18T06:56:30.035Z,14.01
2018-10-18T06:57:29.945Z,14.16
2018-10-18T06:58:29.853Z,14.16
2018-10-18T06:59:29.775Z,13.96
2018-10-18T07:00:29.778Z,14.13
2018-10-18T07:01:29.572Z,14.06
2018-10-18T07:02:29.484Z,14.19
2018-10-18T07:03:29.393Z,14.21
2018-10-18T07:04:29.318Z,14.30
2018-10-18T07:05:29.208Z,14.54
2018-10-18T07:06:29.120Z,14.69
2018-10-18T07:07:29.025Z,14.90
2018-10-18T07:08:28.934Z,15.07
2018-10-18T07:09:28.863Z,15.19
2018-10-18T07:10:28.753Z,15.33
2018-10-18T07:11:28.663Z,15.51
2018-10-18T07:12:28.573Z,15.62
2018-10-18T07:13:28.482Z,15.60
2018-10-18T07:14:28.409Z,15.41
2018-10-18T07:15:28.301Z,15.37
2018-10-18T07:16:28.208Z,15.40
2018-10-18T07:17:28.132Z,15.20
2018-10-18T07:18:28.034Z,15.12
2018-10-18T07:19:27.967Z,14.74
2018-10-18T07:20:27.851Z,14.49
2018-10-18T07:21:27.756Z,14.23
2018-10-18T07:22:27.669Z,14.06
2018-10-18T07:23:27.579Z,14.11
2018-10-18T07:24:27.540Z,13.87
2018-10-18T07:25:27.534Z,13.79
2018-10-18T07:26:27.308Z,13.66
2018-10-18T07:27:27.218Z,13.61
2018-10-18T07:28:27.228Z,13.39
2018-10-18T07:29:27.055Z,13.17
2018-10-18T07:30:26.946Z,13.07
2018-10-18T07:31:26.852Z,13.03
2018-10-18T07:32:26.765Z,12.96
2018-10-18T07:33:26.676Z,12.98
2018-10-18T07:34:26.598Z,13.01
2018-10-18T07:35:26.603Z,12.98
2018-10-18T07:36:26.404Z,13.13
2018-10-18T07:37:26.309Z,13.13
2018-10-18T07:38:26.219Z,13.13
2018-10-18T07:39:26.142Z,13.04
2018-10-18T07:40:26.062Z,13.21
2018-10-18T07:41:25.946Z,13.19
2018-10-18T07:42:25.958Z,13.14
2018-10-18T07:43:25.764Z,13.12
2018-10-18T07:44:25.673Z,13.03
2018-10-18T07:45:25.598Z,13.03
2018-10-18T07:46:25.491Z,12.87
2018-10-18T07:47:25.400Z,12.85
2018-10-18T07:48:25.308Z,12.94
2018-10-18T07:49:25.321Z,12.98
2018-10-18T07:50:25.139Z,13.03
2018-10-18T07:51:25.032Z,12.99
2018-10-18T07:52:24.941Z,13.03
2018-10-18T07:53:24.882Z,13.01
2018-10-18T07:54:24.761Z,13.12
2018-10-18T07:55:24.682Z,13.14
2018-10-18T07:56:24.681Z,13.25
2018-10-18T07:57:24.488Z,13.38
2018-10-18T07:58:24.393Z,13.31
2018-10-18T07:59:24.300Z,13.50
2018-10-18T08:00:24.249Z,13.53
2018-10-18T08:01:24.119Z,13.51
2018-10-18T08:02:24.026Z,13.50
2018-10-18T08:03:24.037Z,13.61
2018-10-18T08:04:23.848Z,13.55
2018-10-18T08:05:23.767Z,13.65
2018-10-18T08:06:23.659Z,13.65
2018-10-18T08:07:23.569Z,13.59
2018-10-18T08:08:23.478Z,13.65
2018-10-18T08:09:23.385Z,13.72
2018-10-18T08:10:23.431Z,13.76
2018-10-18T08:11:23.206Z,13.76
2018-10-18T08:12:23.109Z,13.80
2018-10-18T08:13:23.020Z,13.86
2018-10-18T08:14:22.926Z,13.79
2018-10-18T08:15:22.867Z,13.79
2018-10-18T08:16:22.741Z,13.79
2018-10-18T08:17:22.781Z,13.73
2018-10-18T08:18:22.558Z,13.62
2018-10-18T08:19:22.470Z,13.62
2018-10-18T08:20:22.395Z,13.68
2018-10-18T08:21:22.294Z,13.63
2018-10-18T08:22:22.248Z,13.65
2018-10-18T08:23:22.101Z,13.48
2018-10-18T08:24:22.116Z,13.43
2018-10-18T08:25:21.932Z,13.31
2018-10-18T08:26:21.826Z,13.39
2018-10-18T08:27:21.738Z,13.22
2018-10-18T08:28:21.642Z,13.28
2018-10-18T08:29:21.548Z,13.24
2018-10-18T08:30:21.478Z,13.16
2018-10-18T08:31:21.557Z,13.21
2018-10-18T08:32:21.272Z,13.07
2018-10-18T08:33:21.180Z,13.09
2018-10-18T08:34:21.094Z,13.03
2018-10-18T08:35:21.015Z,13.03
2018-10-18T08:36:20.907Z,13.10
2018-10-18T08:37:20.825Z,13.13
2018-10-18T08:38:20.805Z,13.27
2018-10-18T08:39:20.630Z,13.36
2018-10-18T08:40:20.561Z,13.46
2018-10-18T08:41:20.447Z,13.50
2018-10-18T08:42:20.356Z,13.44
2018-10-18T08:43:20.264Z,13.59
2018-10-18T08:44:20.218Z,13.80
2018-10-18T08:45:20.093Z,13.86
2018-10-18T08:46:19.988Z,13.87
2018-10-18T08:47:19.901Z,14.01
2018-10-18T08:48:19.807Z,14.05
2018-10-18T08:49:19.726Z,13.83
2018-10-18T08:50:19.636Z,13.86
2018-10-18T08:51:19.529Z,13.68
2018-10-18T08:52:19.435Z,13.46
2018-10-18T08:53:19.342Z,13.63
2018-10-18T08:54:19.252Z,13.61
2018-10-18T08:55:19.273Z,13.76
2018-10-18T08:56:19.071Z,13.91
2018-10-18T08:57:18.975Z,14.02
2018-10-18T08:58:18.887Z,14.80
2018-10-18T08:59:18.918Z,15.19
2018-10-18T09:00:18.719Z,15.80
2018-10-18T09:01:18.681Z,16.36
2018-10-18T09:02:18.519Z,16.92
2018-10-18T09:03:18.432Z,17.21
2018-10-18T09:04:18.335Z,17.60
2018-10-18T09:05:18.263Z,18.21
2018-10-18T09:06:18.156Z,18.57
2018-10-18T09:07:18.111Z,19.06
2018-10-18T09:08:17.974Z,19.60
2018-10-18T09:09:17.888Z,19.95
2018-10-18T09:10:17.811Z,19.17
2018-10-18T09:11:17.705Z,19.10
2018-10-18T09:12:17.650Z,19.05
2018-10-18T09:13:17.603Z,19.65
2018-10-18T09:14:17.440Z,19.83
2018-10-18T09:15:17.366Z,20.30
2018-10-18T09:16:17.260Z,20.07
2018-10-18T09:17:17.180Z,19.86
2018-10-18T09:18:17.088Z,20.41
2018-10-18T09:19:17.045Z,20.76
2018-10-18T09:20:16.928Z,21.26
2018-10-18T09:21:16.821Z,21.71
2018-10-18T09:22:16.734Z,22.02
2018-10-18T09:23:16.649Z,22.14
2018-10-18T09:24:16.577Z,21.81
2018-10-18T09:25:16.589Z,21.61
2018-10-18T09:26:16.409Z,21.48
2018-10-18T09:27:16.303Z,21.52
2018-10-18T09:28:16.219Z,21.40
2018-10-18T09:29:16.132Z,21.53
2018-10-18T09:30:16.098Z,21.64
2018-10-18T09:31:15.997Z,21.66
2018-10-18T09:32:15.874Z,21.31
2018-10-18T09:33:15.795Z,20.75
2018-10-18T09:34:15.707Z,20.33
2018-10-18T09:35:15.636Z,19.82
2018-10-18T09:36:15.552Z,19.61
2018-10-18T09:37:15.482Z,19.27
2018-10-18T09:38:15.385Z,19.30
2018-10-18T09:39:15.279Z,19.40
2018-10-18T09:40:15.200Z,19.79
2018-10-18T09:41:15.128Z,19.82
2018-10-18T09:42:15.029Z,19.30
2018-10-18T09:43:15.019Z,19.42
2018-10-18T09:44:14.902Z,20.05
2018-10-18T09:45:14.772Z,19.58
2018-10-18T09:46:14.715Z,19.30
2018-10-18T09:47:14.597Z,19.06
2018-10-18T09:48:14.515Z,18.68
2018-10-18T09:49:14.496Z,18.46
2018-10-18T09:50:14.344Z,18.51
2018-10-18T09:51:14.276Z,18.56
2018-10-18T09:52:14.168Z,19.05
2018-10-18T09:53:14.084Z,19.30
2018-10-18T09:54:14.104Z,18.90
2018-10-18T09:55:13.983Z,18.97
2018-10-18T09:56:13.939Z,19.39
2018-10-18T09:57:13.741Z,18.91
2018-10-18T09:58:13.655Z,18.59
2018-10-18T09:59:13.567Z,18.44
2018-10-18T10:00:13.484Z,18.39
2018-10-18T10:01:13.595Z,18.64
2018-10-18T10:02:13.308Z,18.84
2018-10-18T10:03:13.225Z,18.74
2018-10-18T10:04:13.260Z,18.62
2018-10-18T10:05:13.050Z,18.51
2018-10-18T10:06:12.979Z,18.26
2018-10-18T10:07:12.886Z,18.46
2018-10-18T10:08:12.909Z,18.57
2018-10-18T10:09:12.704Z,18.93
2018-10-18T10:10:12.625Z,19.32
2018-10-18T10:11:12.545Z,19.76
2018-10-18T10:12:12.447Z,20.12
2018-10-18T10:13:12.469Z,20.79
2018-10-18T10:14:12.269Z,21.12
2018-10-18T10:15:12.288Z,21.86
2018-10-18T10:16:12.111Z,22.45
2018-10-18T10:17:12.096Z,23.00
2018-10-18T10:18:11.984Z,23.16
2018-10-18T10:19:11.876Z,23.34
2018-10-18T10:20:11.751Z,23.39
2018-10-18T10:21:11.682Z,23.16
2018-10-18T10:22:11.688Z,23.50
2018-10-18T10:23:11.498Z,23.45
2018-10-18T10:24:11.412Z,23.63
2018-10-18T10:25:11.401Z,23.86
2018-10-18T10:26:11.260Z,23.97
2018-10-18T10:27:11.159Z,24.27
2018-10-18T10:28:11.074Z,24.51
2018-10-18T10:29:11.093Z,24.74
2018-10-18T10:30:10.941Z,24.61
2018-10-18T10:31:10.917Z,24.53
2018-10-18T10:32:10.737Z,24.67
2018-10-18T10:33:10.756Z,24.93
2018-10-18T10:34:10.571Z,24.53
2018-10-18T10:35:10.592Z,23.60
2018-10-18T10:36:10.526Z,22.74
2018-10-18T10:37:10.347Z,22.11
2018-10-18T10:38:10.240Z,22.35
2018-10-18T10:39:10.169Z,21.82
2018-10-18T10:40:10.102Z,21.74
2018-10-18T10:41:10.044Z,21.96
2018-10-18T10:42:09.968Z,22.49
2018-10-18T10:43:09.923Z,23.03
2018-10-18T10:44:09.784Z,23.07
2018-10-18T10:45:09.757Z,23.49
2018-10-18T10:46:09.676Z,23.63
2018-10-18T10:47:09.488Z,23.89
2018-10-18T10:48:09.416Z,23.97
2018-10-18T10:49:09.362Z,24.12
2018-10-18T10:50:09.411Z,24.26
2018-10-18T10:51:09.230Z,24.11
2018-10-18T10:52:09.153Z,24.18
2018-10-18T10:53:08.984Z,24.37
2018-10-18T10:54:08.951Z,23.63
2018-10-18T10:55:08.821Z,22.79
2018-10-18T10:56:08.814Z,22.35
2018-10-18T10:57:08.697Z,22.38
2018-10-18T10:58:08.691Z,22.69
2018-10-18T10:59:08.571Z,22.79
2018-10-18T11:00:08.481Z,23.11
2018-10-18T11:01:08.340Z,23.23
2018-10-18T11:02:08.251Z,22.49
2018-10-18T11:03:08.224Z,22.17
2018-10-18T11:04:08.075Z,22.72
2018-10-18T11:05:07.987Z,22.35
2018-10-18T11:06:08.007Z,22.96
2018-10-18T11:07:07.822Z,22.33
2018-10-18T11:08:07.780Z,22.46
2018-10-18T11:09:07.696Z,22.88
2018-10-18T11:10:07.573Z,23.47
2018-10-18T11:11:07.510Z,23.71
2018-10-18T11:12:07.482Z,23.77
2018-10-18T11:13:07.328Z,23.99
2018-10-18T11:14:07.258Z,24.55
2018-10-18T11:15:07.211Z,24.97
2018-10-18T11:16:07.086Z,25.31
2018-10-18T11:17:07.012Z,25.53
2018-10-18T11:18:06.910Z,24.93
2018-10-18T11:19:06.821Z,24.64
2018-10-18T11:20:06.747Z,24.77
2018-10-18T11:21:06.732Z,24.68
2018-10-18T11:22:06.588Z,24.68
2018-10-18T11:23:06.491Z,25.09
2018-10-18T11:24:06.524Z,25.27
2018-10-18T11:25:06.339Z,24.97
2018-10-18T11:26:06.335Z,25.31
2018-10-18T11:27:06.190Z,25.27
2018-10-18T11:28:06.078Z,24.92
2018-10-18T11:29:05.994Z,25.24
2018-10-18T11:30:05.975Z,25.46
2018-10-18T11:31:05.833Z,25.57
2018-10-18T11:32:05.777Z,24.84
2018-10-18T11:33:05.815Z,25.01
2018-10-18T11:34:05.590Z,24.19
2018-10-18T11:35:05.507Z,23.67
2018-10-18T11:36:05.492Z,23.64
2018-10-18T11:37:05.363Z,23.75
2018-10-18T11:38:05.308Z,23.68
2018-10-18T11:39:05.182Z,23.81
2018-10-18T11:40:05.100Z,24.00
2018-10-18T11:41:05.018Z,24.15
2018-10-18T11:42:04.977Z,23.64
2018-10-18T11:43:04.855Z,24.05
2018-10-18T11:44:04.850Z,23.67
2018-10-18T11:45:04.687Z,23.39
2018-10-18T11:46:04.605Z,23.15
2018-10-18T11:47:04.547Z,23.07
2018-10-18T11:48:04.450Z,23.07
2018-10-18T11:49:04.361Z,23.31
2018-10-18T11:50:04.316Z,23.18
2018-10-18T11:51:04.195Z,23.52
2018-10-18T11:52:04.246Z,23.81
2018-10-18T11:53:04.028Z,23.82
2018-10-18T11:54:03.974Z,23.84
2018-10-18T11:55:03.864Z,24.26
2018-10-18T11:56:03.838Z,24.55
2018-10-18T11:57:03.717Z,23.63
2018-10-18T11:58:03.619Z,23.31
2018-10-18T11:59:03.625Z,23.38
2018-10-18T12:00:03.467Z,23.26
2018-10-18T12:01:03.386Z,23.25
2018-10-18T12:02:03.336Z,23.67
2018-10-18T12:03:03.202Z,23.67
2018-10-18T12:04:03.119Z,23.87
2018-10-18T12:05:03.062Z,23.64
2018-10-18T12:06:02.957Z,23.41
2018-10-18T12:07:02.886Z,23.53
2018-10-18T12:08:02.854Z,23.35
2018-10-18T12:09:02.706Z,23.01
2018-10-18T12:10:02.625Z,23.15
2018-10-18T12:11:02.590Z,23.38
2018-10-18T12:12:02.473Z,23.52
2018-10-18T12:13:02.374Z,23.72
2018-10-18T12:14:02.314Z,23.82
2018-10-18T12:15:02.217Z,23.84
2018-10-18T12:16:02.123Z,24.36
2018-10-18T12:17:02.075Z,23.81
2018-10-18T12:18:01.958Z,24.08
2018-10-18T12:19:01.930Z,24.11
2018-10-18T12:20:01.864Z,24.04
2018-10-18T12:21:01.709Z,24.06
2018-10-18T12:22:01.643Z,24.24
2018-10-18T12:23:01.553Z,24.12
2018-10-18T12:24:01.459Z,23.74
2018-10-18T12:25:01.377Z,23.18
2018-10-18T12:26:01.307Z,23.01
2018-10-18T12:27:01.310Z,22.72
2018-10-18T12:28:01.124Z,23.14
2018-10-18T12:29:01.079Z,23.35
2018-10-18T12:30:00.961Z,23.53
2018-10-18T12:31:00.880Z,23.21
2018-10-18T12:32:00.845Z,23.34
2018-10-18T12:33:00.708Z,23.12
2018-10-18T12:34:00.627Z,22.76
2018-10-18T12:35:00.561Z,22.44
2018-10-18T12:36:00.457Z,21.77
2018-10-18T12:37:00.388Z,21.99
2018-10-18T12:38:00.343Z,22.06
2018-10-18T12:39:00.216Z,22.08
2018-10-18T12:40:00.124Z,22.04
2018-10-18T12:41:00.198Z,22.31
2018-10-18T12:42:00.150Z,22.44
2018-10-18T12:42:59.871Z,22.29
2018-10-18T12:43:59.822Z,21.93
2018-10-18T12:44:59.705Z,22.05
2018-10-18T12:45:59.619Z,21.77
2018-10-18T12:46:59.555Z,21.89
2018-10-18T12:47:59.479Z,21.48
2018-10-18T12:48:59.370Z,21.18
2018-10-18T12:49:59.334Z,21.06
2018-10-18T12:50:59.199Z,20.82
2018-10-18T12:51:59.133Z,20.53
2018-10-18T12:52:59.028Z,20.30
2018-10-18T12:53:58.963Z,20.05
2018-10-18T12:54:58.865Z,19.70
2018-10-18T12:55:58.902Z,19.76
2018-10-18T12:56:58.710Z,19.75
2018-10-18T12:57:58.606Z,19.57
2018-10-18T12:58:58.524Z,19.61
2018-10-18T12:59:58.495Z,19.55
2018-10-18T13:00:58.353Z,19.47
2018-10-18T13:01:58.357Z,19.42
2018-10-18T13:02:58.280Z,19.32